createdAt,value
2024-05-09T00:03:54.928Z,8.07
2024-05-09T00:08:57.464Z,7.95
2024-05-09T00:14:00.036Z,7.76
2024-05-09T00:19:02.863Z,7.91
2024-05-09T00:24:06.027Z,7.90
2024-05-09T00:29:08.712Z,7.89
2024-05-09T00:34:13.282Z,7.94
2024-05-09T00:39:15.930Z,7.94
2024-05-09T00:44:18.844Z,7.95
2024-05-09T00:49:22.899Z,7.88
2024-05-09T00:54:26.768Z,7.80
2024-05-09T00:59:30.644Z,7.77
2024-05-09T01:04:33.276Z,7.69
2024-05-09T01:09:35.792Z,7.59
2024-05-09T01:14:38.364Z,7.38
2024-05-09T01:19:41.079Z,7.37
2024-05-09T01:24:43.705Z,7.27
2024-05-09T01:29:46.206Z,7.28
2024-05-09T01:34:48.808Z,7.28
2024-05-09T01:39:52.694Z,7.23
2024-05-09T01:44:55.231Z,7.28
2024-05-09T01:49:57.882Z,7.14
2024-05-09T01:55:03.505Z,7.28
2024-05-09T02:00:10.317Z,7.22
2024-05-09T02:05:14.644Z,7.25
2024-05-09T02:10:23.472Z,7.25
2024-05-09T02:15:32.993Z,7.32
2024-05-09T02:20:38.550Z,7.34
2024-05-09T02:25:44.466Z,7.41
2024-05-09T02:30:47.237Z,7.51
2024-05-09T02:35:49.839Z,7.51
2024-05-09T02:40:52.546Z,7.62
2024-05-09T02:45:55.174Z,7.68
2024-05-09T02:50:57.796Z,7.74
2024-05-09T02:56:00.663Z,7.80
2024-05-09T03:01:03.482Z,7.85
2024-05-09T03:06:06.040Z,7.94
2024-05-09T03:11:08.751Z,8.07
2024-05-09T03:16:11.558Z,8.20
2024-05-09T03:21:14.112Z,8.38
2024-05-09T03:26:18.770Z,8.49
2024-05-09T03:31:21.373Z,8.59
2024-05-09T03:36:23.913Z,8.67
2024-05-09T03:41:26.527Z,8.82
2024-05-09T03:46:29.317Z,9.04
2024-05-09T03:51:31.986Z,9.30
2024-05-09T03:56:34.736Z,9.39
2024-05-09T04:01:37.546Z,9.54
2024-05-09T04:06:40.114Z,9.53
2024-05-09T04:11:42.846Z,9.68
2024-05-09T04:16:45.546Z,9.78
2024-05-09T04:21:48.107Z,9.93
2024-05-09T04:26:50.618Z,9.99
2024-05-09T04:31:53.448Z,10.03
2024-05-09T04:36:56.020Z,10.03
2024-05-09T04:41:58.552Z,10.16
2024-05-09T04:47:01.176Z,10.18
2024-05-09T04:52:03.874Z,10.48
2024-05-09T04:57:06.643Z,10.61
2024-05-09T05:02:09.491Z,10.62
2024-05-09T05:07:12.261Z,10.89
2024-05-09T05:12:33.769Z,11.06
2024-05-09T05:17:36.650Z,11.18
2024-05-09T05:22:40.940Z,11.32
2024-05-09T05:27:43.517Z,11.33
2024-05-09T05:32:48.711Z,11.66
2024-05-09T05:37:51.448Z,11.60
2024-05-09T05:42:54.103Z,12.00
2024-05-09T05:47:57.234Z,12.04
2024-05-09T05:52:59.961Z,12.12
2024-05-09T05:58:02.953Z,12.46
2024-05-09T06:03:06.068Z,12.75
2024-05-09T06:08:09.462Z,12.69
2024-05-09T06:13:14.706Z,12.90
2024-05-09T06:18:18.024Z,12.91
2024-05-09T06:23:20.811Z,12.99
2024-05-09T06:28:23.686Z,13.12
2024-05-09T06:33:26.658Z,13.31
2024-05-09T06:38:29.540Z,13.63
2024-05-09T06:43:32.573Z,13.81
2024-05-09T06:48:35.306Z,14.17
2024-05-09T06:53:40.294Z,14.26
2024-05-09T06:58:43.558Z,14.27
2024-05-09T07:03:46.399Z,14.06
2024-05-09T07:08:51.207Z,13.85
2024-05-09T07:13:54.994Z,14.40
2024-05-09T07:18:57.667Z,14.22
2024-05-09T07:24:00.407Z,14.30
2024-05-09T07:29:02.935Z,14.27
2024-05-09T07:34:05.530Z,13.87
2024-05-09T07:39:08.153Z,14.15
2024-05-09T07:44:10.668Z,14.31
2024-05-09T07:50:55.126Z,14.38
2024-05-09T07:54:38.310Z,14.46
2024-05-09T07:59:41.038Z,14.70
2024-05-09T08:04:44.038Z,14.46
2024-05-09T08:09:46.623Z,14.32
2024-05-09T08:14:49.157Z,14.49
2024-05-09T08:19:51.742Z,14.50
2024-05-09T08:24:54.496Z,14.84
2024-05-09T08:29:57.031Z,14.59
2024-05-09T08:34:59.678Z,14.30
2024-05-09T08:40:02.513Z,14.51
2024-05-09T08:45:06.824Z,14.37
2024-05-09T08:50:23.909Z,14.50
2024-05-09T08:55:34.066Z,14.50
2024-05-09T09:00:39.586Z,14.25
2024-05-09T09:05:53.419Z,14.55
2024-05-09T09:10:59.507Z,14.32
2024-05-09T09:16:03.249Z,14.34
2024-05-09T09:21:10.896Z,14.44
2024-05-09T09:26:17.027Z,14.59
2024-05-09T09:31:20.059Z,14.80
2024-05-09T09:36:22.732Z,14.62
2024-05-09T09:41:30.344Z,14.54
2024-05-09T09:46:33.738Z,14.69
2024-05-09T09:51:37.103Z,14.78
2024-05-09T09:56:40.193Z,14.64
2024-05-09T10:01:46.513Z,14.96
2024-05-09T10:07:00.007Z,14.69
2024-05-09T10:12:12.799Z,14.90
2024-05-09T10:17:17.905Z,14.99
2024-05-09T10:22:31.166Z,15.03
2024-05-09T10:27:34.616Z,15.02
2024-05-09T10:32:41.484Z,15.04
2024-05-09T10:37:46.622Z,14.68
2024-05-09T10:42:49.321Z,14.64
2024-05-09T10:47:52.174Z,15.24
2024-05-09T10:52:54.810Z,14.83
2024-05-09T10:57:58.422Z,14.74
2024-05-09T11:03:01.246Z,14.67
2024-05-09T11:08:04.328Z,14.81
2024-05-09T11:13:07.973Z,15.08
2024-05-09T11:18:24.971Z,14.89
2024-05-09T11:23:30.977Z,14.85
2024-05-09T11:28:33.649Z,15.36
2024-05-09T11:33:40.558Z,14.99
2024-05-09T11:38:43.404Z,14.80
2024-05-09T11:43:46.052Z,15.46
2024-05-09T11:48:48.987Z,15.16
2024-05-09T11:53:51.568Z,15.59
2024-05-09T11:58:54.472Z,15.18
2024-05-09T12:03:57.335Z,15.45
2024-05-09T12:09:00.100Z,15.66
2024-05-09T12:14:02.812Z,16.21
2024-05-09T12:19:05.560Z,15.96
2024-05-09T12:24:08.159Z,16.13
2024-05-09T12:29:10.965Z,16.41
2024-05-09T12:34:16.453Z,16.28
2024-05-09T12:39:19.374Z,16.34
2024-05-09T12:44:21.919Z,16.38
2024-05-09T12:49:24.834Z,16.34
2024-05-09T12:54:27.506Z,16.16
2024-05-09T12:59:30.023Z,16.91
2024-05-09T13:04:32.812Z,16.82
2024-05-09T13:09:35.515Z,17.87
2024-05-09T13:14:38.044Z,18.24
2024-05-09T13:19:40.584Z,19.19
2024-05-09T13:24:43.256Z,19.07
2024-05-09T13:29:45.803Z,19.28
2024-05-09T13:34:48.404Z,19.83
2024-05-09T13:39:51.138Z,19.89
2024-05-09T13:44:56.547Z,19.47
2024-05-09T13:49:59.651Z,18.51
2024-05-09T13:55:02.226Z,18.12
2024-05-09T14:00:07.467Z,17.62
2024-05-09T14:05:15.144Z,17.49
2024-05-09T14:10:23.456Z,17.47
2024-05-09T14:15:31.462Z,16.78
2024-05-09T14:20:34.124Z,16.64
2024-05-09T14:25:39.778Z,16.84
2024-05-09T14:30:44.559Z,16.63
2024-05-09T14:35:47.153Z,16.30
2024-05-09T14:40:51.061Z,16.94
2024-05-09T14:45:54.196Z,16.64
2024-05-09T14:50:56.937Z,16.54
2024-05-09T14:56:00.775Z,16.33
2024-05-09T15:01:03.790Z,15.80
2024-05-09T15:06:06.842Z,16.20
2024-05-09T15:11:09.594Z,15.86
2024-05-09T15:16:12.246Z,16.54
2024-05-09T15:21:14.854Z,16.03
2024-05-09T15:26:17.561Z,16.31
2024-05-09T15:31:20.226Z,15.87
2024-05-09T15:36:22.866Z,15.01
2024-05-09T15:41:25.527Z,14.45
2024-05-09T15:46:28.178Z,14.16
2024-05-09T15:51:30.807Z,13.84
2024-05-09T15:56:33.544Z,13.64
2024-05-09T16:01:36.166Z,13.59
2024-05-09T16:06:38.839Z,13.41
2024-05-09T16:11:41.493Z,13.16
2024-05-09T16:16:44.292Z,13.07
2024-05-09T16:21:47.034Z,13.09
2024-05-09T16:26:49.642Z,12.85
2024-05-09T16:31:52.292Z,12.74
2024-05-09T16:36:54.915Z,12.57
2024-05-09T16:41:57.538Z,12.47
2024-05-09T16:47:01.571Z,12.23
2024-05-09T16:52:04.414Z,12.21
2024-05-09T16:57:07.259Z,12.07
2024-05-09T17:02:10.310Z,12.05
2024-05-09T17:07:13.368Z,12.06
2024-05-09T17:12:16.080Z,11.95
2024-05-09T17:17:21.581Z,11.88
2024-05-09T17:22:24.262Z,11.81
2024-05-09T17:27:26.996Z,11.65
2024-05-09T17:32:29.945Z,11.62
2024-05-09T17:37:32.636Z,11.59
2024-05-09T17:42:35.292Z,11.43
2024-05-09T17:47:37.957Z,11.35
2024-05-09T17:52:40.545Z,11.30
2024-05-09T17:57:43.547Z,11.29
2024-05-09T18:02:46.246Z,11.11
2024-05-09T18:07:48.886Z,11.03
2024-05-09T18:12:51.438Z,10.78
2024-05-09T18:17:54.261Z,10.79
2024-05-09T18:22:56.850Z,10.73
2024-05-09T18:27:59.538Z,10.66
2024-05-09T18:33:02.303Z,10.53
2024-05-09T18:38:05.767Z,10.35
2024-05-09T18:43:09.256Z,10.21
2024-05-09T18:48:13.411Z,10.01
2024-05-09T18:53:16.495Z,9.82
2024-05-09T18:58:19.120Z,9.80
2024-05-09T19:03:22.100Z,9.63
2024-05-09T19:08:24.965Z,9.39
2024-05-09T19:13:27.741Z,9.36
2024-05-09T19:18:31.398Z,9.34
2024-05-09T19:23:38.091Z,9.28
2024-05-09T19:28:43.379Z,9.16
2024-05-09T19:33:45.967Z,9.11
2024-05-09T19:38:49.096Z,8.95
2024-05-09T19:43:51.682Z,9.05
2024-05-09T19:48:54.504Z,8.99
2024-05-09T19:53:57.254Z,8.82
2024-05-09T19:58:59.732Z,8.58
2024-05-09T20:04:02.713Z,8.60
2024-05-09T20:09:06.447Z,8.60
2024-05-09T20:14:09.160Z,8.52
2024-05-09T20:19:11.815Z,8.32
2024-05-09T20:24:14.691Z,8.37
2024-05-09T20:29:17.210Z,8.19
2024-05-09T20:34:19.792Z,8.10
2024-05-09T20:39:26.348Z,8.15
2024-05-09T20:44:28.876Z,8.04
2024-05-09T20:49:31.512Z,8.13
2024-05-09T20:54:34.213Z,8.03
2024-05-09T20:59:38.296Z,8.05
2024-05-09T21:04:42.001Z,7.89
2024-05-09T21:09:44.800Z,7.83
2024-05-09T21:14:47.335Z,7.69
2024-05-09T21:19:51.142Z,7.74
2024-05-09T21:24:53.879Z,7.66
2024-05-09T21:29:56.399Z,7.53
2024-05-09T21:34:58.993Z,7.46
2024-05-09T21:40:06.950Z,7.34
2024-05-09T21:45:11.724Z,7.45
2024-05-09T21:50:22.307Z,7.57
2024-05-09T21:55:30.507Z,7.56
2024-05-09T22:00:37.719Z,7.54
2024-05-09T22:05:44.401Z,7.52
2024-05-09T22:10:51.547Z,7.39
2024-05-09T22:15:54.389Z,7.18
2024-05-09T22:20:56.963Z,7.16
2024-05-09T22:25:59.452Z,7.03
2024-05-09T22:31:02.100Z,6.88
2024-05-09T22:36:07.676Z,6.85
2024-05-09T22:41:10.294Z,6.75
2024-05-09T22:46:13.114Z,6.86
2024-05-09T22:51:16.007Z,6.87
2024-05-09T22:56:27.122Z,6.83
2024-05-09T23:01:29.826Z,6.69
2024-05-09T23:06:32.587Z,6.60
2024-05-09T23:11:35.138Z,6.53
2024-05-09T23:16:38.021Z,6.48
2024-05-09T23:21:41.195Z,6.47
2024-05-09T23:26:44.085Z,6.35
2024-05-09T23:31:46.809Z,6.22
2024-05-09T23:36:49.432Z,6.09
2024-05-09T23:41:51.969Z,6.24
2024-05-09T23:46:54.588Z,6.37
2024-05-09T23:51:57.277Z,6.32
2024-05-09T23:57:00.056Z,6.51
